sensor_id;sensor_type;location;lat;lon;timestamp;temperature;humidity
25346;DHT22;13300;51.032;3.710;2023-02-01T00:00:48;8.10;99.90
25346;DHT22;13300;51.032;3.710;2023-02-01T00:03:14;8.10;99.90
25346;DHT22;13300;51.032;3.710;2023-02-01T00:05:40;8.10;99.90
25346;DHT22;13300;51.032;3.710;2023-02-01T00:08:05;8.00;99.90
25346;DHT22;13300;51.032;3.710;2023-02-01T00:10:31;8.00;99.90
25346;DHT22;13300;51.032;3.710;2023-02-01T00:12:57;7.90;99.90
25346;DHT22;13300;51.032;3.710;2023-02-01T00:15:23;7.90;99.90
25346;DHT22;13300;51.032;3.710;2023-02-01T00:17:53;7.90;99.90
25346;DHT22;13300;51.032;3.710;2023-02-01T00:20:19;7.90;99.90
25346;DHT22;13300;51.032;3.710;2023-02-01T00:22:47;7.80;99.90
25346;DHT22;13300;51.032;3.710;2023-02-01T00:25:13;7.70;99.90
25346;DHT22;13300;51.032;3.710;2023-02-01T00:27:39;7.70;99.90
25346;DHT22;13300;51.032;3.710;2023-02-01T00:30:05;7.70;99.90
25346;DHT22;13300;51.032;3.710;2023-02-01T00:32:35;7.60;99.90
25346;DHT22;13300;51.032;3.710;2023-02-01T00:35:01;7.50;99.90
25346;DHT22;13300;51.032;3.710;2023-02-01T00:37:29;7.60;99.90
25346;DHT22;13300;51.032;3.710;2023-02-01T00:39:55;7.50;99.90
25346;DHT22;13300;51.032;3.710;2023-02-01T00:42:23;7.50;99.90
25346;DHT22;13300;51.032;3.710;2023-02-01T00:44:49;7.40;99.90
25346;DHT22;13300;51.032;3.710;2023-02-01T00:47:15;7.30;99.90
25346;DHT22;13300;51.032;3.710;2023-02-01T00:49:40;7.20;99.90
25346;DHT22;13300;51.032;3.710;2023-02-01T00:52:09;7.20;99.90
25346;DHT22;13300;51.032;3.710;2023-02-01T00:54:35;7.10;99.90
25346;DHT22;13300;51.032;3.710;2023-02-01T00:57:02;7.20;99.90
25346;DHT22;13300;51.032;3.710;2023-02-01T00:59:28;7.10;99.90
25346;DHT22;13300;51.032;3.710;2023-02-01T01:01:57;7.10;99.90
25346;DHT22;13300;51.032;3.710;2023-02-01T01:04:25;7.10;99.90
25346;DHT22;13300;51.032;3.710;2023-02-01T01:06:51;7.00;99.90
25346;DHT22;13300;51.032;3.710;2023-02-01T01:09:19;7.00;99.90
25346;DHT22;13300;51.032;3.710;2023-02-01T01:11:44;7.00;99.90
25346;DHT22;13300;51.032;3.710;2023-02-01T01:14:10;7.10;99.90
25346;DHT22;13300;51.032;3.710;2023-02-01T01:16:36;7.00;99.90
25346;DHT22;13300;51.032;3.710;2023-02-01T01:19:04;7.00;99.90
25346;DHT22;13300;51.032;3.710;2023-02-01T01:21:33;7.00;99.90
25346;DHT22;13300;51.032;3.710;2023-02-01T01:24:01;7.00;99.90
25346;DHT22;13300;51.032;3.710;2023-02-01T01:26:29;7.00;99.90
25346;DHT22;13300;51.032;3.710;2023-02-01T01:28:58;7.00;99.90
25346;DHT22;13300;51.032;3.710;2023-02-01T01:31:25;6.90;99.90
25346;DHT22;13300;51.032;3.710;2023-02-01T01:33:52;6.90;99.90
25346;DHT22;13300;51.032;3.710;2023-02-01T01:36:18;6.80;99.90
25346;DHT22;13300;51.032;3.710;2023-02-01T01:38:44;6.70;99.90
25346;DHT22;13300;51.032;3.710;2023-02-01T01:41:15;6.70;99.90
25346;DHT22;13300;51.032;3.710;2023-02-01T01:43:51;6.70;99.90
25346;DHT22;13300;51.032;3.710;2023-02-01T01:46:24;6.70;99.90
25346;DHT22;13300;51.032;3.710;2023-02-01T01:51:51;6.70;99.90
25346;DHT22;13300;51.032;3.710;2023-02-01T01:56:56;6.60;99.90
25346;DHT22;13300;51.032;3.710;2023-02-01T01:59:23;6.60;99.90
25346;DHT22;13300;51.032;3.710;2023-02-01T02:01:49;6.60;99.90
25346;DHT22;13300;51.032;3.710;2023-02-01T02:04:16;6.60;99.90
25346;DHT22;13300;51.032;3.710;2023-02-01T02:09:14;6.80;99.90
25346;DHT22;13300;51.032;3.710;2023-02-01T02:11:40;6.80;99.90
25346;DHT22;13300;51.032;3.710;2023-02-01T02:14:09;6.80;99.90
25346;DHT22;13300;51.032;3.710;2023-02-01T02:19:37;6.80;99.90
25346;DHT22;13300;51.032;3.710;2023-02-01T02:27:57;6.50;99.90
25346;DHT22;13300;51.032;3.710;2023-02-01T02:35:58;6.50;99.90
25346;DHT22;13300;51.032;3.710;2023-02-01T02:41:15;6.50;99.90
25346;DHT22;13300;51.032;3.710;2023-02-01T02:47:46;6.60;99.90
25346;DHT22;13300;51.032;3.710;2023-02-01T02:50:35;6.60;99.90
25346;DHT22;13300;51.032;3.710;2023-02-01T02:53:33;6.60;99.90
25346;DHT22;13300;51.032;3.710;2023-02-01T02:56:21;6.70;99.90
25346;DHT22;13300;51.032;3.710;2023-02-01T02:59:08;6.70;99.90
25346;DHT22;13300;51.032;3.710;2023-02-01T03:01:54;6.60;99.90
25346;DHT22;13300;51.032;3.710;2023-02-01T03:04:38;6.60;99.90
25346;DHT22;13300;51.032;3.710;2023-02-01T03:16:32;6.60;99.90
25346;DHT22;13300;51.032;3.710;2023-02-01T03:24:46;6.60;99.90
25346;DHT22;13300;51.032;3.710;2023-02-01T03:27:43;6.50;99.90
25346;DHT22;13300;51.032;3.710;2023-02-01T03:30:22;6.60;99.90
25346;DHT22;13300;51.032;3.710;2023-02-01T03:32:52;6.50;99.90
25346;DHT22;13300;51.032;3.710;2023-02-01T03:35:58;6.60;99.90
25346;DHT22;13300;51.032;3.710;2023-02-01T03:38:32;6.60;99.90
25346;DHT22;13300;51.032;3.710;2023-02-01T03:43:55;6.70;99.90
25346;DHT22;13300;51.032;3.710;2023-02-01T03:46:33;6.60;99.90
25346;DHT22;13300;51.032;3.710;2023-02-01T03:49:02;6.60;99.90
25346;DHT22;13300;51.032;3.710;2023-02-01T03:51:29;6.60;99.90
25346;DHT22;13300;51.032;3.710;2023-02-01T03:53:57;6.60;99.90
25346;DHT22;13300;51.032;3.710;2023-02-01T03:56:25;6.70;99.90
25346;DHT22;13300;51.032;3.710;2023-02-01T03:58:52;6.60;99.90
25346;DHT22;13300;51.032;3.710;2023-02-01T04:01:28;6.60;99.90
25346;DHT22;13300;51.032;3.710;2023-02-01T04:03:55;6.50;99.90
25346;DHT22;13300;51.032;3.710;2023-02-01T04:06:21;6.60;99.90
25346;DHT22;13300;51.032;3.710;2023-02-01T04:08:47;6.50;99.90
25346;DHT22;13300;51.032;3.710;2023-02-01T04:11:12;6.50;99.90
25346;DHT22;13300;51.032;3.710;2023-02-01T04:13:38;6.50;99.90
25346;DHT22;13300;51.032;3.710;2023-02-01T04:16:09;6.40;99.90
25346;DHT22;13300;51.032;3.710;2023-02-01T04:18:35;6.40;99.90
25346;DHT22;13300;51.032;3.710;2023-02-01T04:21:02;6.40;99.90
25346;DHT22;13300;51.032;3.710;2023-02-01T04:23:28;6.40;99.90
25346;DHT22;13300;51.032;3.710;2023-02-01T04:26:01;6.40;99.90
25346;DHT22;13300;51.032;3.710;2023-02-01T04:28:29;6.30;99.90
25346;DHT22;13300;51.032;3.710;2023-02-01T04:30:58;6.30;99.90
25346;DHT22;13300;51.032;3.710;2023-02-01T04:33:24;6.20;99.90
25346;DHT22;13300;51.032;3.710;2023-02-01T04:35:49;6.30;99.90
25346;DHT22;13300;51.032;3.710;2023-02-01T04:38:15;6.30;99.90
25346;DHT22;13300;51.032;3.710;2023-02-01T04:40:42;6.30;99.90
25346;DHT22;13300;51.032;3.710;2023-02-01T04:43:07;6.30;99.90
25346;DHT22;13300;51.032;3.710;2023-02-01T04:45:33;6.20;99.90
25346;DHT22;13300;51.032;3.710;2023-02-01T04:47:59;6.20;99.90
25346;DHT22;13300;51.032;3.710;2023-02-01T04:50:25;6.10;99.90
25346;DHT22;13300;51.032;3.710;2023-02-01T04:52:50;6.10;99.90
25346;DHT22;13300;51.032;3.710;2023-02-01T04:55:19;6.20;99.90
25346;DHT22;13300;51.032;3.710;2023-02-01T04:57:47;6.20;99.90
25346;DHT22;13300;51.032;3.710;2023-02-01T05:00:13;6.30;99.90
25346;DHT22;13300;51.032;3.710;2023-02-01T05:02:39;6.20;99.90
25346;DHT22;13300;51.032;3.710;2023-02-01T05:05:05;6.20;99.90
25346;DHT22;13300;51.032;3.710;2023-02-01T05:07:31;6.20;99.90
25346;DHT22;13300;51.032;3.710;2023-02-01T05:09:57;6.10;99.90
25346;DHT22;13300;51.032;3.710;2023-02-01T05:12:26;6.10;99.90
25346;DHT22;13300;51.032;3.710;2023-02-01T05:15:10;6.00;99.90
25346;DHT22;13300;51.032;3.710;2023-02-01T05:17:36;6.10;99.90
25346;DHT22;13300;51.032;3.710;2023-02-01T05:20:01;6.10;99.90
25346;DHT22;13300;51.032;3.710;2023-02-01T05:22:30;6.10;99.90
25346;DHT22;13300;51.032;3.710;2023-02-01T05:24:56;6.10;99.90
25346;DHT22;13300;51.032;3.710;2023-02-01T05:27:22;6.10;99.90
25346;DHT22;13300;51.032;3.710;2023-02-01T05:29:50;6.10;99.90
25346;DHT22;13300;51.032;3.710;2023-02-01T05:32:19;6.10;99.90
25346;DHT22;13300;51.032;3.710;2023-02-01T05:34:44;6.20;99.90
25346;DHT22;13300;51.032;3.710;2023-02-01T05:37:10;6.20;99.90
25346;DHT22;13300;51.032;3.710;2023-02-01T05:39:36;6.10;99.90
25346;DHT22;13300;51.032;3.710;2023-02-01T05:42:01;6.10;99.90
25346;DHT22;13300;51.032;3.710;2023-02-01T05:44:40;6.10;99.90
25346;DHT22;13300;51.032;3.710;2023-02-01T05:47:10;6.10;99.90
25346;DHT22;13300;51.032;3.710;2023-02-01T05:49:37;6.00;99.90
25346;DHT22;13300;51.032;3.710;2023-02-01T05:52:03;6.00;99.90
25346;DHT22;13300;51.032;3.710;2023-02-01T05:54:29;5.90;99.90
25346;DHT22;13300;51.032;3.710;2023-02-01T05:56:55;5.90;99.90
25346;DHT22;13300;51.032;3.710;2023-02-01T05:59:23;5.80;99.90
25346;DHT22;13300;51.032;3.710;2023-02-01T06:01:49;5.80;99.90
25346;DHT22;13300;51.032;3.710;2023-02-01T06:04:15;5.80;99.90
25346;DHT22;13300;51.032;3.710;2023-02-01T06:06:40;5.80;99.90
25346;DHT22;13300;51.032;3.710;2023-02-01T06:09:06;5.80;99.90
25346;DHT22;13300;51.032;3.710;2023-02-01T06:11:32;5.80;99.90
25346;DHT22;13300;51.032;3.710;2023-02-01T06:14:00;5.80;99.90
25346;DHT22;13300;51.032;3.710;2023-02-01T06:16:29;5.70;99.90
25346;DHT22;13300;51.032;3.710;2023-02-01T06:18:54;5.70;99.90
25346;DHT22;13300;51.032;3.710;2023-02-01T06:21:20;5.80;99.90
25346;DHT22;13300;51.032;3.710;2023-02-01T06:23:51;5.80;99.90
25346;DHT22;13300;51.032;3.710;2023-02-01T06:26:19;5.80;99.90
25346;DHT22;13300;51.032;3.710;2023-02-01T06:28:45;5.80;99.90
25346;DHT22;13300;51.032;3.710;2023-02-01T06:31:14;5.80;99.90
25346;DHT22;13300;51.032;3.710;2023-02-01T06:33:40;5.80;99.90
25346;DHT22;13300;51.032;3.710;2023-02-01T06:36:09;5.70;99.90
25346;DHT22;13300;51.032;3.710;2023-02-01T06:38:38;5.80;99.90
25346;DHT22;13300;51.032;3.710;2023-02-01T06:41:05;5.90;99.90
25346;DHT22;13300;51.032;3.710;2023-02-01T06:43:50;5.80;99.90
25346;DHT22;13300;51.032;3.710;2023-02-01T06:46:47;5.70;99.90
25346;DHT22;13300;51.032;3.710;2023-02-01T06:49:26;5.80;99.90
25346;DHT22;13300;51.032;3.710;2023-02-01T06:51:51;5.70;99.90
25346;DHT22;13300;51.032;3.710;2023-02-01T06:54:17;5.70;99.90
25346;DHT22;13300;51.032;3.710;2023-02-01T06:56:43;5.70;99.90
25346;DHT22;13300;51.032;3.710;2023-02-01T06:59:10;5.70;99.90
25346;DHT22;13300;51.032;3.710;2023-02-01T07:01:39;5.70;99.90
25346;DHT22;13300;51.032;3.710;2023-02-01T07:04:10;5.70;99.90
25346;DHT22;13300;51.032;3.710;2023-02-01T07:06:37;5.70;99.90
25346;DHT22;13300;51.032;3.710;2023-02-01T07:09:03;5.70;99.90
25346;DHT22;13300;51.032;3.710;2023-02-01T07:11:28;5.80;99.90
25346;DHT22;13300;51.032;3.710;2023-02-01T07:13:54;5.80;99.90
25346;DHT22;13300;51.032;3.710;2023-02-01T07:16:20;5.80;99.90
25346;DHT22;13300;51.032;3.710;2023-02-01T07:18:50;5.80;99.90
25346;DHT22;13300;51.032;3.710;2023-02-01T07:21:16;5.80;99.90
25346;DHT22;13300;51.032;3.710;2023-02-01T07:23:45;5.80;99.90
25346;DHT22;13300;51.032;3.710;2023-02-01T07:26:12;5.90;99.90
25346;DHT22;13300;51.032;3.710;2023-02-01T07:28:38;5.90;99.90
25346;DHT22;13300;51.032;3.710;2023-02-01T07:31:22;5.90;99.90
25346;DHT22;13300;51.032;3.710;2023-02-01T07:33:49;6.00;99.90
25346;DHT22;13300;51.032;3.710;2023-02-01T07:36:20;5.90;99.90
25346;DHT22;13300;51.032;3.710;2023-02-01T07:38:46;6.00;99.90
25346;DHT22;13300;51.032;3.710;2023-02-01T07:41:17;6.00;99.90
25346;DHT22;13300;51.032;3.710;2023-02-01T07:43:46;6.10;99.90
25346;DHT22;13300;51.032;3.710;2023-02-01T07:46:21;6.10;99.90
25346;DHT22;13300;51.032;3.710;2023-02-01T07:48:47;6.10;99.90
25346;DHT22;13300;51.032;3.710;2023-02-01T07:51:15;6.30;99.90
25346;DHT22;13300;51.032;3.710;2023-02-01T07:53:41;6.40;99.90
25346;DHT22;13300;51.032;3.710;2023-02-01T07:56:34;6.50;99.90
25346;DHT22;13300;51.032;3.710;2023-02-01T07:58:59;6.80;99.90
25346;DHT22;13300;51.032;3.710;2023-02-01T08:01:27;7.10;99.90
25346;DHT22;13300;51.032;3.710;2023-02-01T08:03:58;7.40;99.90
25346;DHT22;13300;51.032;3.710;2023-02-01T08:06:29;7.80;99.90
25346;DHT22;13300;51.032;3.710;2023-02-01T08:08:56;8.10;99.90
25346;DHT22;13300;51.032;3.710;2023-02-01T08:11:23;8.30;99.90
25346;DHT22;13300;51.032;3.710;2023-02-01T08:13:50;8.40;99.90
25346;DHT22;13300;51.032;3.710;2023-02-01T08:16:17;8.30;99.90
25346;DHT22;13300;51.032;3.710;2023-02-01T08:18:42;8.10;99.90
25346;DHT22;13300;51.032;3.710;2023-02-01T08:21:17;8.00;99.90
25346;DHT22;13300;51.032;3.710;2023-02-01T08:23:43;8.00;99.90
25346;DHT22;13300;51.032;3.710;2023-02-01T08:26:17;8.00;99.90
25346;DHT22;13300;51.032;3.710;2023-02-01T08:28:46;8.20;99.90
25346;DHT22;13300;51.032;3.710;2023-02-01T08:31:15;8.40;99.90
25346;DHT22;13300;51.032;3.710;2023-02-01T08:33:42;8.50;99.90
25346;DHT22;13300;51.032;3.710;2023-02-01T08:36:10;8.70;99.90
25346;DHT22;13300;51.032;3.710;2023-02-01T08:38:36;8.80;99.90
25346;DHT22;13300;51.032;3.710;2023-02-01T08:41:11;8.90;99.90
25346;DHT22;13300;51.032;3.710;2023-02-01T08:43:37;8.90;99.90
25346;DHT22;13300;51.032;3.710;2023-02-01T08:46:04;9.30;99.90
25346;DHT22;13300;51.032;3.710;2023-02-01T08:48:30;9.80;99.90
25346;DHT22;13300;51.032;3.710;2023-02-01T08:50:55;10.00;99.90
25346;DHT22;13300;51.032;3.710;2023-02-01T08:53:24;10.00;99.90
25346;DHT22;13300;51.032;3.710;2023-02-01T08:55:53;9.90;99.90
25346;DHT22;13300;51.032;3.710;2023-02-01T08:58:18;10.20;99.90
25346;DHT22;13300;51.032;3.710;2023-02-01T09:00:45;10.90;99.90
25346;DHT22;13300;51.032;3.710;2023-02-01T09:03:25;11.70;99.90
25346;DHT22;13300;51.032;3.710;2023-02-01T09:06:03;12.40;99.90
25346;DHT22;13300;51.032;3.710;2023-02-01T09:08:29;12.90;99.90
25346;DHT22;13300;51.032;3.710;2023-02-01T09:11:02;13.40;99.90
25346;DHT22;13300;51.032;3.710;2023-02-01T09:13:28;14.00;99.90
25346;DHT22;13300;51.032;3.710;2023-02-01T09:15:54;14.70;99.90
25346;DHT22;13300;51.032;3.710;2023-02-01T09:18:20;15.00;99.90
25346;DHT22;13300;51.032;3.710;2023-02-01T09:20:51;15.10;99.90
25346;DHT22;13300;51.032;3.710;2023-02-01T09:23:17;15.10;99.90
25346;DHT22;13300;51.032;3.710;2023-02-01T09:25:45;15.00;99.90
25346;DHT22;13300;51.032;3.710;2023-02-01T09:28:13;15.30;99.90
25346;DHT22;13300;51.032;3.710;2023-02-01T09:30:39;15.40;99.90
25346;DHT22;13300;51.032;3.710;2023-02-01T09:33:05;15.30;99.90
25346;DHT22;13300;51.032;3.710;2023-02-01T09:35:31;15.00;99.90
25346;DHT22;13300;51.032;3.710;2023-02-01T09:37:57;15.10;99.90
25346;DHT22;13300;51.032;3.710;2023-02-01T09:40:25;15.10;99.90
25346;DHT22;13300;51.032;3.710;2023-02-01T09:50:05;15.00;99.90
25346;DHT22;13300;51.032;3.710;2023-02-01T09:52:40;15.20;99.90
25346;DHT22;13300;51.032;3.710;2023-02-01T09:55:15;15.30;99.90
25346;DHT22;13300;51.032;3.710;2023-02-01T10:01:18;14.70;99.90
25346;DHT22;13300;51.032;3.710;2023-02-01T10:03:44;14.70;99.90
25346;DHT22;13300;51.032;3.710;2023-02-01T10:48:54;15.10;99.90
25346;DHT22;13300;51.032;3.710;2023-02-01T10:54:43;14.10;99.90
25346;DHT22;13300;51.032;3.710;2023-02-01T10:57:11;14.00;99.90
25346;DHT22;13300;51.032;3.710;2023-02-01T11:00:21;14.20;99.90
25346;DHT22;13300;51.032;3.710;2023-02-01T11:02:47;15.20;99.90
25346;DHT22;13300;51.032;3.710;2023-02-01T11:05:15;16.20;99.90
25346;DHT22;13300;51.032;3.710;2023-02-01T11:07:49;17.30;99.90
25346;DHT22;13300;51.032;3.710;2023-02-01T13:15:36;17.40;99.90
25346;DHT22;13300;51.032;3.710;2023-02-01T13:18:20;17.40;99.90
25346;DHT22;13300;51.032;3.710;2023-02-01T13:21:48;17.70;99.90
25346;DHT22;13300;51.032;3.710;2023-02-01T13:23:53;18.40;99.90
25346;DHT22;13300;51.032;3.710;2023-02-01T13:26:19;18.80;98.80
25346;DHT22;13300;51.032;3.710;2023-02-01T13:28:46;18.90;99.90
25346;DHT22;13300;51.032;3.710;2023-02-01T13:42:22;18.30;99.10
25346;DHT22;13300;51.032;3.710;2023-02-01T13:45:04;18.60;98.50
25346;DHT22;13300;51.032;3.710;2023-02-01T13:47:42;18.20;98.60
25346;DHT22;13300;51.032;3.710;2023-02-01T13:53:12;17.80;99.70
25346;DHT22;13300;51.032;3.710;2023-02-01T13:55:41;17.90;99.90
25346;DHT22;13300;51.032;3.710;2023-02-01T14:00:45;16.40;99.90
25346;DHT22;13300;51.032;3.710;2023-02-01T14:03:22;16.20;99.90
25346;DHT22;13300;51.032;3.710;2023-02-01T14:09:30;15.50;99.90
25346;DHT22;13300;51.032;3.710;2023-02-01T14:12:47;14.70;99.90
25346;DHT22;13300;51.032;3.710;2023-02-01T14:15:27;14.20;99.90
25346;DHT22;13300;51.032;3.710;2023-02-01T14:20:51;13.80;99.90
25346;DHT22;13300;51.032;3.710;2023-02-01T14:23:54;13.50;99.90
25346;DHT22;13300;51.032;3.710;2023-02-01T14:26:45;13.30;99.90
25346;DHT22;13300;51.032;3.710;2023-02-01T14:37:11;12.40;99.90
25346;DHT22;13300;51.032;3.710;2023-02-01T14:42:46;12.30;99.90
25346;DHT22;13300;51.032;3.710;2023-02-01T14:50:52;11.90;99.90
25346;DHT22;13300;51.032;3.710;2023-02-01T14:53:26;11.90;99.90
25346;DHT22;13300;51.032;3.710;2023-02-01T14:56:15;11.80;99.90
25346;DHT22;13300;51.032;3.710;2023-02-01T14:59:15;11.80;99.90
25346;DHT22;13300;51.032;3.710;2023-02-01T15:01:57;11.90;99.90
25346;DHT22;13300;51.032;3.710;2023-02-01T15:04:30;11.90;99.90
25346;DHT22;13300;51.032;3.710;2023-02-01T15:07:12;11.80;99.90
25346;DHT22;13300;51.032;3.710;2023-02-01T15:09:56;11.80;99.90
25346;DHT22;13300;51.032;3.710;2023-02-01T15:12:29;11.80;99.90
25346;DHT22;13300;51.032;3.710;2023-02-01T15:17:35;11.60;99.90
25346;DHT22;13300;51.032;3.710;2023-02-01T15:22:42;11.50;99.90
25346;DHT22;13300;51.032;3.710;2023-02-01T15:25:22;11.40;99.90
25346;DHT22;13300;51.032;3.710;2023-02-01T15:27:48;11.40;99.90
25346;DHT22;13300;51.032;3.710;2023-02-01T15:32:47;11.50;99.90
25346;DHT22;13300;51.032;3.710;2023-02-01T15:35:34;11.40;99.90
25346;DHT22;13300;51.032;3.710;2023-02-01T15:43:20;11.10;99.90
25346;DHT22;13300;51.032;3.710;2023-02-01T15:45:48;11.10;99.90
25346;DHT22;13300;51.032;3.710;2023-02-01T15:48:21;10.90;99.90
25346;DHT22;13300;51.032;3.710;2023-02-01T15:50:48;10.90;99.90
25346;DHT22;13300;51.032;3.710;2023-02-01T15:53:20;10.90;99.90
25346;DHT22;13300;51.032;3.710;2023-02-01T15:55:50;11.00;99.90
25346;DHT22;13300;51.032;3.710;2023-02-01T15:58:24;11.00;99.90
25346;DHT22;13300;51.032;3.710;2023-02-01T16:00:56;11.10;99.90
25346;DHT22;13300;51.032;3.710;2023-02-01T16:03:32;11.10;99.90
25346;DHT22;13300;51.032;3.710;2023-02-01T16:06:01;11.20;99.90
25346;DHT22;13300;51.032;3.710;2023-02-01T16:08:30;11.10;99.90
25346;DHT22;13300;51.032;3.710;2023-02-01T16:13:33;11.00;99.90
25346;DHT22;13300;51.032;3.710;2023-02-01T16:15:59;10.80;99.90
25346;DHT22;13300;51.032;3.710;2023-02-01T16:18:24;10.90;99.90
25346;DHT22;13300;51.032;3.710;2023-02-01T16:20:50;10.90;99.90
25346;DHT22;13300;51.032;3.710;2023-02-01T16:23:16;10.90;99.90
25346;DHT22;13300;51.032;3.710;2023-02-01T16:25:45;11.00;99.90
25346;DHT22;13300;51.032;3.710;2023-02-01T16:28:10;11.00;99.90
25346;DHT22;13300;51.032;3.710;2023-02-01T16:30:36;11.10;99.90
25346;DHT22;13300;51.032;3.710;2023-02-01T16:33:02;11.10;99.90
25346;DHT22;13300;51.032;3.710;2023-02-01T16:35:35;11.00;99.90
25346;DHT22;13300;51.032;3.710;2023-02-01T16:38:03;10.90;99.90
25346;DHT22;13300;51.032;3.710;2023-02-01T16:40:34;10.70;99.90
25346;DHT22;13300;51.032;3.710;2023-02-01T16:42:59;10.70;99.90
25346;DHT22;13300;51.032;3.710;2023-02-01T16:45:25;10.60;99.90
25346;DHT22;13300;51.032;3.710;2023-02-01T16:47:54;10.60;99.90
25346;DHT22;13300;51.032;3.710;2023-02-01T16:50:23;10.70;99.90
25346;DHT22;13300;51.032;3.710;2023-02-01T16:52:50;10.50;99.90
25346;DHT22;13300;51.032;3.710;2023-02-01T16:55:18;10.40;99.90
25346;DHT22;13300;51.032;3.710;2023-02-01T16:57:44;10.40;99.90
25346;DHT22;13300;51.032;3.710;2023-02-01T17:00:11;10.50;99.90
25346;DHT22;13300;51.032;3.710;2023-02-01T17:02:37;10.60;99.90
25346;DHT22;13300;51.032;3.710;2023-02-01T17:05:04;10.60;99.90
25346;DHT22;13300;51.032;3.710;2023-02-01T17:07:30;10.50;99.90
25346;DHT22;13300;51.032;3.710;2023-02-01T17:09:56;10.60;99.90
25346;DHT22;13300;51.032;3.710;2023-02-01T17:12:25;10.50;99.90
25346;DHT22;13300;51.032;3.710;2023-02-01T17:14:51;10.50;99.90
25346;DHT22;13300;51.032;3.710;2023-02-01T17:17:18;10.50;99.90
25346;DHT22;13300;51.032;3.710;2023-02-01T17:19:47;10.60;99.90
25346;DHT22;13300;51.032;3.710;2023-02-01T17:22:15;10.50;99.90
25346;DHT22;13300;51.032;3.710;2023-02-01T17:24:41;10.50;99.90
25346;DHT22;13300;51.032;3.710;2023-02-01T17:27:07;10.50;99.90
25346;DHT22;13300;51.032;3.710;2023-02-01T17:29:32;10.50;99.90
25346;DHT22;13300;51.032;3.710;2023-02-01T17:31:58;10.50;99.90
25346;DHT22;13300;51.032;3.710;2023-02-01T17:34:25;10.50;99.90
25346;DHT22;13300;51.032;3.710;2023-02-01T17:36:51;10.50;99.90
25346;DHT22;13300;51.032;3.710;2023-02-01T17:39:17;10.50;99.90
25346;DHT22;13300;51.032;3.710;2023-02-01T17:42:03;10.60;99.90
25346;DHT22;13300;51.032;3.710;2023-02-01T17:44:29;10.50;99.90
25346;DHT22;13300;51.032;3.710;2023-02-01T17:46:55;10.60;99.90
25346;DHT22;13300;51.032;3.710;2023-02-01T17:49:27;10.40;99.90
25346;DHT22;13300;51.032;3.710;2023-02-01T17:51:59;10.40;99.90
25346;DHT22;13300;51.032;3.710;2023-02-01T17:54:25;10.30;99.90
25346;DHT22;13300;51.032;3.710;2023-02-01T17:56:51;10.20;99.90
25346;DHT22;13300;51.032;3.710;2023-02-01T17:59:17;10.20;99.90
25346;DHT22;13300;51.032;3.710;2023-02-01T18:01:45;10.00;99.90
25346;DHT22;13300;51.032;3.710;2023-02-01T18:04:15;9.90;99.90
25346;DHT22;13300;51.032;3.710;2023-02-01T18:06:42;10.00;99.90
25346;DHT22;13300;51.032;3.710;2023-02-01T18:09:12;10.00;99.90
25346;DHT22;13300;51.032;3.710;2023-02-01T18:11:38;10.10;99.90
25346;DHT22;13300;51.032;3.710;2023-02-01T18:14:03;10.00;99.90
25346;DHT22;13300;51.032;3.710;2023-02-01T18:16:31;10.00;99.90
25346;DHT22;13300;51.032;3.710;2023-02-01T18:18:57;10.00;99.90
25346;DHT22;13300;51.032;3.710;2023-02-01T18:21:34;10.00;99.90
25346;DHT22;13300;51.032;3.710;2023-02-01T18:24:14;10.00;99.90
25346;DHT22;13300;51.032;3.710;2023-02-01T18:26:40;10.00;99.90
25346;DHT22;13300;51.032;3.710;2023-02-01T18:29:09;10.00;99.90
25346;DHT22;13300;51.032;3.710;2023-02-01T18:31:44;10.00;99.90
25346;DHT22;13300;51.032;3.710;2023-02-01T18:34:18;10.00;99.90
25346;DHT22;13300;51.032;3.710;2023-02-01T18:36:49;10.00;99.90
25346;DHT22;13300;51.032;3.710;2023-02-01T18:39:19;10.00;99.90
25346;DHT22;13300;51.032;3.710;2023-02-01T18:41:46;9.90;99.90
25346;DHT22;13300;51.032;3.710;2023-02-01T18:44:13;9.90;99.90
25346;DHT22;13300;51.032;3.710;2023-02-01T18:46:40;9.90;99.90
25346;DHT22;13300;51.032;3.710;2023-02-01T18:49:06;9.80;99.90
25346;DHT22;13300;51.032;3.710;2023-02-01T18:51:33;9.90;99.90
25346;DHT22;13300;51.032;3.710;2023-02-01T18:53:59;9.80;99.90
25346;DHT22;13300;51.032;3.710;2023-02-01T18:56:24;9.80;99.90
25346;DHT22;13300;51.032;3.710;2023-02-01T18:58:50;9.80;99.90
25346;DHT22;13300;51.032;3.710;2023-02-01T19:01:18;9.70;99.90
25346;DHT22;13300;51.032;3.710;2023-02-01T19:03:44;9.80;99.90
25346;DHT22;13300;51.032;3.710;2023-02-01T19:06:10;9.90;99.90
25346;DHT22;13300;51.032;3.710;2023-02-01T19:08:36;9.90;99.90
25346;DHT22;13300;51.032;3.710;2023-02-01T19:14:07;9.90;99.90
25346;DHT22;13300;51.032;3.710;2023-02-01T19:16:33;9.90;99.90
25346;DHT22;13300;51.032;3.710;2023-02-01T19:19:02;9.90;99.90
25346;DHT22;13300;51.032;3.710;2023-02-01T19:21:28;9.90;99.90
25346;DHT22;13300;51.032;3.710;2023-02-01T19:23:54;9.90;99.90
25346;DHT22;13300;51.032;3.710;2023-02-01T19:26:25;9.80;99.90
25346;DHT22;13300;51.032;3.710;2023-02-01T19:31:57;9.80;99.90
25346;DHT22;13300;51.032;3.710;2023-02-01T19:34:35;9.90;99.90
25346;DHT22;13300;51.032;3.710;2023-02-01T19:37:41;9.90;99.90
25346;DHT22;13300;51.032;3.710;2023-02-01T19:40:09;9.90;99.90
25346;DHT22;13300;51.032;3.710;2023-02-01T19:46:39;9.90;99.90
25346;DHT22;13300;51.032;3.710;2023-02-01T19:49:33;9.90;99.90
25346;DHT22;13300;51.032;3.710;2023-02-01T19:55:30;9.80;99.90
25346;DHT22;13300;51.032;3.710;2023-02-01T19:58:09;9.80;99.90
25346;DHT22;13300;51.032;3.710;2023-02-01T20:04:32;9.70;99.90
25346;DHT22;13300;51.032;3.710;2023-02-01T20:10:54;9.70;99.90
25346;DHT22;13300;51.032;3.710;2023-02-01T20:13:53;9.60;99.90
25346;DHT22;13300;51.032;3.710;2023-02-01T20:19:31;9.60;99.90
25346;DHT22;13300;51.032;3.710;2023-02-01T20:22:09;9.60;99.90
25346;DHT22;13300;51.032;3.710;2023-02-01T20:24:42;9.60;99.90
25346;DHT22;13300;51.032;3.710;2023-02-01T20:27:11;9.70;99.90
25346;DHT22;13300;51.032;3.710;2023-02-01T20:29:47;9.60;99.90
25346;DHT22;13300;51.032;3.710;2023-02-01T20:32:13;9.60;99.90
25346;DHT22;13300;51.032;3.710;2023-02-01T20:41:53;9.50;99.90
25346;DHT22;13300;51.032;3.710;2023-02-01T20:55:10;9.60;99.90
25346;DHT22;13300;51.032;3.710;2023-02-01T21:01:28;9.50;99.90
25346;DHT22;13300;51.032;3.710;2023-02-01T21:07:27;9.40;99.90
25346;DHT22;13300;51.032;3.710;2023-02-01T21:09:57;9.40;99.90
25346;DHT22;13300;51.032;3.710;2023-02-01T21:12:55;9.40;99.90
25346;DHT22;13300;51.032;3.710;2023-02-01T21:15:20;9.40;99.90
25346;DHT22;13300;51.032;3.710;2023-02-01T21:17:48;9.40;99.90
25346;DHT22;13300;51.032;3.710;2023-02-01T21:20:28;9.50;99.90
25346;DHT22;13300;51.032;3.710;2023-02-01T21:22:55;9.60;99.90
25346;DHT22;13300;51.032;3.710;2023-02-01T21:25:25;9.60;99.90
25346;DHT22;13300;51.032;3.710;2023-02-01T21:27:53;9.60;99.90
25346;DHT22;13300;51.032;3.710;2023-02-01T21:30:22;9.60;99.90
25346;DHT22;13300;51.032;3.710;2023-02-01T21:32:55;9.70;99.90